Münster Osnabrück Airport

EDDG · Rhénanie du Nord-Westphalie, Allemagne

METAR anciennes EDDG · Aéroport de Muenster-Osnabrück

Tu vois ci-dessous les METAR des derniers jours. Sélectionne une année pour parcourir les METAR plus anciens, à partir de l'année 2007.

9 décembre 2022

Temps Code Temps Temp. Vue Base cloud Vent METAR/SPECI
07:50
L
1 °C 3,3 km 300 ft Var Var 1 kt METAR EDDG 090650Z AUTO VRB01KT 3300 BR BKN003 BKN008 01/00 Q1006 TEMPO 2000 BR SCT003 BKN008
07:20
L
1 °C 3,3 km 200 ft Var Var 1 kt METAR EDDG 090620Z AUTO VRB01KT 3300 BR BKN002 BKN010 BKN016 01/01 Q1006 REDZ TEMPO 1500
06:50
L
1 °C 1,1 km 100 ft 140° 140° 1 kt METAR EDDG 090550Z AUTO 14001KT 1800 1100 R25/P2000N BR BKN001 01/01 Q1006 TEMPO 0800 FG
06:20
L
1 °C 1,9 km 100 ft Var Var 2 kt METAR EDDG 090520Z AUTO VRB02KT 1900 BR BKN001 01/00 Q1006 TEMPO 1200 BCFG
05:50
L
1 °C 1 km 100 ft 190° 190° 3 kt METAR EDDG 090450Z AUTO 19003KT 150V230 1400 1000 R25/1400U BR BKN001 01/00 Q1006 TEMPO 0800 FG SCT001
05:20
L
1 °C 900 m - 110° 110° 3 kt METAR EDDG 090420Z AUTO 11003KT 030V180 0900 R25/1100U FG SCT001 SCT035 01/00 Q1006 TEMPO 0600 BKN001
04:50
L
1 °C 1,3 km 100 ft Var Var 2 kt METAR EDDG 090350Z AUTO VRB02KT 1800 1300 R25/1800D BR BKN001 BKN029 BKN034 01/00 Q1006 TEMPO 0800 FG SCT001
04:20
L
1 °C 1,2 km 100 ft Var Var 2 kt METAR EDDG 090320Z AUTO VRB02KT 1800 1200 R25/P2000N BR BKN001 BKN025 01/01 Q1006 TEMPO 0800 FG SCT001 BKN005
03:50
L
1 °C 900 m 100 ft Var Var 2 kt METAR EDDG 090250Z AUTO VRB02KT 0900 R25/1300U FG BKN001 BKN024 01/01 Q1007 TEMPO 0600
03:20
L
1 °C 2,2 km 100 ft 150° 150° 3 kt METAR EDDG 090220Z AUTO 15003KT 100V190 2200 BR BKN001 BKN023 01/01 Q1007 TEMPO 1200 SCT001
02:50
L
1 °C 900 m 2.400 ft Var Var 1 kt METAR EDDG 090150Z AUTO VRB01KT 1000 0900 R25/P2000N BCFG FEW000 BKN024 01/00 Q1007 TEMPO 3000 BKN005
02:20
L
1 °C 600 m 2.500 ft Var Var 2 kt METAR EDDG 090120Z AUTO VRB02KT 1600 0600 R25/1900N BCFG FEW015 SCT021 BKN025 01/00 Q1007 TEMPO 3000 BKN005
01:50
L
1 °C 1,2 km 2.500 ft Var Var 2 kt METAR EDDG 090050Z AUTO VRB02KT 1200 R25/1600U BR FEW001 BKN025 BKN029 01/00 Q1007 TEMPO 3000 BKN005
01:20
L
1 °C 750 m 1.100 ft Var Var 1 kt METAR EDDG 090020Z AUTO VRB01KT 0900 0750 R25/1200U FG SCT001 BKN011 01/01 Q1007
00:50
L
1 °C 650 m 1.100 ft 150° 150° 3 kt METAR EDDG 082350Z AUTO 15003KT 0800 0650 R25/0700N FG SCT001 BKN011 01/01 Q1007 TEMPO 1500 BR BKN001
00:20
L
1 °C 550 m 100 ft 180° 180° 4 kt METAR EDDG 082320Z AUTO 18004KT 150V210 0650 0550 R25/0650D FG BKN001 BKN013 01/01 Q1007 TEMPO 1500 BR BKN012

8 décembre 2022

Temps Code Temps Temp. Vue Base cloud Vent METAR/SPECI
23:50
L
0 °C 700 m - 130° 130° 3 kt METAR EDDG 082250Z AUTO 13003KT 3700 0700 R25/P2000N BCFG FEW002 SCT013 00/M00 Q1007 TEMPO 1500 BKN013
23:20
M
2 °C 5 km 1.300 ft Var Var 2 kt METAR EDDG 082220Z AUTO VRB02KT 5000 BR FEW004 BKN013 02/01 Q1007 BECMG 3000
22:50
I
2 °C 6 km 600 ft Var Var 2 kt METAR EDDG 082150Z AUTO VRB02KT 6000 BKN006 OVC040 02/01 Q1007 TEMPO 4000 BR SCT007 BKN014
22:20
V
2 °C 8 km 4.100 ft 160° 160° 2 kt METAR EDDG 082120Z AUTO 16002KT 8000 OVC041 02/01 Q1007 NOSIG
21:50
M
1 °C 8 km 2.700 ft Var Var 1 kt METAR EDDG 082050Z AUTO VRB01KT 8000 SCT019 BKN027 BKN044 01/01 Q1007 NOSIG
21:20
M
2 °C 8 km 1.700 ft 160° 160° 2 kt METAR EDDG 082020Z AUTO 16002KT 8000 BKN017 BKN042 02/01 Q1007 TEMPO BKN010
20:50
M
1 °C 7 km 1.700 ft Var Var 1 kt METAR EDDG 081950Z AUTO VRB01KT 7000 OVC017 01/01 Q1007 NOSIG
20:20
M
1 °C 7 km 1.500 ft Var Var 1 kt METAR EDDG 081920Z AUTO VRB01KT 7000 OVC015 01/00 Q1007 TEMPO 4000 BR BKN012
19:50
L
1 °C 900 m 1.200 ft Var Var 1 kt METAR EDDG 081850Z AUTO VRB01KT 9000 0900 R25/P2000N BCFG BKN012 01/00 Q1007 TEMPO SCT011
19:20
M
2 °C 10 km+ 1.100 ft Var Var 1 kt METAR EDDG 081820Z AUTO VRB01KT 9999 BKN011 BKN041 02/01 Q1006 TEMPO SCT011
18:50
M
2 °C 10 km+ 1.100 ft Var Var 1 kt METAR EDDG 081750Z AUTO VRB01KT 9999 BKN011 02/01 Q1007 TEMPO SCT011
18:20
M
2 °C 10 km+ 1.300 ft Var Var 1 kt METAR EDDG 081720Z AUTO VRB01KT 9999 BKN013 BKN042 02/01 Q1007 TEMPO SCT014
17:50
M
2 °C 10 km+ 1.200 ft 200° 200° 3 kt METAR EDDG 081650Z AUTO 20003KT 170V250 9999 BKN012 02/01 Q1007 NOSIG
17:20
M
2 °C 10 km+ 1.200 ft 160° 160° 2 kt METAR EDDG 081620Z AUTO 16002KT 9999 BKN012 02/01 Q1006 TEMPO SCT012
16:50
V
2 °C 10 km+ - 260° 260° 1 kt METAR EDDG 081550Z AUTO 26001KT 9999 SCT012 02/01 Q1006 TEMPO BKN013
16:20
M
3 °C 10 km+ 1.500 ft 230° 230° 4 kt METAR EDDG 081520Z AUTO 23004KT 9999 BKN015 03/01 Q1006 NOSIG
15:50
M
3 °C 10 km+ 1.500 ft 250° 250° 6 kt METAR EDDG 081450Z AUTO 25006KT 220V280 9999 FEW011 BKN015 03/01 Q1006 TEMPO BKN011
15:20
M
4 °C 10 km+ 1.200 ft 240° 240° 5 kt METAR EDDG 081420Z AUTO 24005KT 9999 BKN012 04/02 Q1006 BECMG SCT012
14:50
V
4 °C 10 km+ - 240° 240° 5 kt METAR EDDG 081350Z AUTO 24005KT 9999 SCT011 04/02 Q1006 NOSIG
14:20
V
4 °C 10 km+ - 250° 250° 6 kt METAR EDDG 081320Z AUTO 25006KT 9999 FEW010 04/01 Q1006 NOSIG
13:50
V
4 °C 10 km+ - 250° 250° 6 kt METAR EDDG 081250Z AUTO 25006KT 230V290 9999 SCT012 04/02 Q1006 NOSIG
13:20
V
4 °C 10 km+ - 240° 240° 6 kt METAR EDDG 081220Z AUTO 24006KT 9999 SCT012 04/01 Q1006 NOSIG
12:50
M
4 °C 10 km+ 1.200 ft 250° 250° 6 kt METAR EDDG 081150Z AUTO 25006KT 230V300 9999 BKN012 04/02 Q1006 BECMG BKN015
12:20
M
4 °C 10 km+ 1.100 ft 250° 250° 8 kt METAR EDDG 081120Z AUTO 25008KT 9999 BKN011 04/02 Q1006 BECMG BKN015
11:50
M
3 °C 10 km+ 1.000 ft 260° 260° 8 kt METAR EDDG 081050Z AUTO 26008KT 9999 OVC010 03/02 Q1006 BECMG BKN015
11:20
I
3 °C 10 km+ 800 ft 260° 260° 8 kt METAR EDDG 081020Z AUTO 26008KT 9999 BKN008 OVC012 03/02 Q1007 BECMG BKN015
10:50
I
3 °C 10 km+ 900 ft 270° 270° 7 kt METAR EDDG 080950Z AUTO 27007KT 9999 OVC009 03/02 Q1007 BECMG BKN015
10:20
M
3 °C 10 km+ 1.000 ft 260° 260° 9 kt METAR EDDG 080920Z AUTO 26009KT 9999 OVC010 03/02 Q1007 BECMG BKN015
09:50
I
3 °C 10 km+ 800 ft 250° 250° 7 kt METAR EDDG 080850Z AUTO 25007KT 230V290 9999 BKN008 OVC012 03/02 Q1007 BECMG BKN015
09:20
I
3 °C 10 km+ 900 ft 250° 250° 7 kt METAR EDDG 080820Z AUTO 25007KT 9999 -DZ BKN009 03/02 Q1006 BECMG BKN015
08:50
M
3 °C 10 km+ 1.000 ft 240° 240° 8 kt METAR EDDG 080750Z AUTO 24008KT 9999 -RADZ BKN010 OVC015 03/02 Q1006 NOSIG
08:20
I
3 °C 10 km+ 900 ft 240° 240° 9 kt METAR EDDG 080720Z AUTO 24009KT 9999 -RA BKN009 BKN012 03/02 Q1006 NOSIG
07:50
I
3 °C 10 km+ 900 ft 240° 240° 8 kt METAR EDDG 080650Z AUTO 24008KT 9999 -RADZ OVC009 03/02 Q1006 NOSIG
07:20
I
3 °C 8 km 800 ft 250° 250° 6 kt METAR EDDG 080620Z AUTO 25006KT 8000 -RADZ OVC008 03/02 Q1006 NOSIG
06:50
M
3 °C 10 km+ 1.000 ft 240° 240° 9 kt METAR EDDG 080550Z AUTO 24009KT 9999 -RA BKN010 BKN020 03/02 Q1006 BECMG BKN009
06:20
I
3 °C 10 km+ 900 ft 230° 230° 8 kt METAR EDDG 080520Z AUTO 23008KT 9999 -RA OVC009 03/02 Q1006 NOSIG
05:50
M
3 °C 10 km+ 1.000 ft 230° 230° 8 kt METAR EDDG 080450Z AUTO 23008KT 9999 -RA BKN010 OVC018 03/02 Q1007 TEMPO BKN008
05:20
M
3 °C 10 km+ 1.000 ft 230° 230° 6 kt METAR EDDG 080420Z AUTO 23006KT 9999 -RADZ BKN010 BKN022 BKN033 03/02 Q1007 TEMPO BKN008
04:50
I
3 °C 10 km+ 900 ft 230° 230° 7 kt METAR EDDG 080350Z AUTO 23007KT 190V260 9999 -RA BKN009 03/02 Q1007 NOSIG
04:20
M
3 °C 10 km+ 1.000 ft 230° 230° 6 kt METAR EDDG 080320Z AUTO 23006KT 9999 -RA BKN010 BKN023 03/02 Q1007 TEMPO BKN008
03:50
I
3 °C 10 km+ 800 ft 220° 220° 5 kt METAR EDDG 080250Z AUTO 22005KT 9999 BKN008 OVC033 03/01 Q1008 NOSIG
03:20
I
2 °C 10 km+ 800 ft 220° 220° 7 kt METAR EDDG 080220Z AUTO 22007KT 190V250 9999 BKN008 OVC047 02/01 Q1008 NOSIG
02:50
V
2 °C 8 km - 210° 210° 6 kt METAR EDDG 080150Z AUTO 21006KT 8000 FEW008 02/01 Q1008 BECMG BKN009
02:20
V
2 °C 10 km+ - 210° 210° 5 kt METAR EDDG 080120Z AUTO 21005KT 180V240 9999 FEW036 02/01 Q1008 TEMPO BKN009
01:50
V
2 °C 10 km+ 3.700 ft 210° 210° 4 kt METAR EDDG 080050Z AUTO 21004KT 180V240 9999 BKN037 BKN044 02/01 Q1009 NOSIG
01:20
V
2 °C 10 km+ - 230° 230° 5 kt METAR EDDG 080020Z AUTO 23005KT 9999 FEW039 SCT047 02/01 Q1009 NOSIG
00:50
V
3 °C 10 km+ - 240° 240° 7 kt METAR EDDG 072350Z AUTO 24007KT 9999 FEW028 03/01 Q1009 NOSIG
00:20
V
3 °C 10 km+ - 240° 240° 7 kt METAR EDDG 072320Z AUTO 24007KT 9999 FEW031 03/01 Q1010 TEMPO BKN010

7 décembre 2022

Temps Code Temps Temp. Vue Base cloud Vent METAR/SPECI
23:50
V
3 °C 10 km+ - 230° 230° 6 kt METAR EDDG 072250Z AUTO 23006KT CAVOK 03/01 Q1010 BECMG BKN010
23:20
V
3 °C 10 km+ - 230° 230° 6 kt METAR EDDG 072220Z AUTO 23006KT 200V260 CAVOK 03/01 Q1010 NOSIG
22:50
V
3 °C 10 km+ - 240° 240° 5 kt METAR EDDG 072150Z AUTO 24005KT CAVOK 03/01 Q1010 NOSIG
22:20
V
3 °C 10 km+ - 240° 240° 6 kt METAR EDDG 072120Z AUTO 24006KT CAVOK 03/01 Q1010 NOSIG
21:50
V
3 °C 10 km+ 4.100 ft 240° 240° 7 kt METAR EDDG 072050Z AUTO 24007KT 9999 BKN041 03/01 Q1010 NOSIG
21:20
V
3 °C 10 km+ - 240° 240° 8 kt METAR EDDG 072020Z AUTO 24008KT 9999 FEW016 03/01 Q1011 NOSIG
20:50
V
4 °C 10 km+ 4.700 ft 240° 240° 8 kt METAR EDDG 071950Z AUTO 24008KT 9999 SCT031 BKN047 04/02 Q1011 NOSIG
20:20
V
3 °C 10 km+ - 250° 250° 6 kt METAR EDDG 071920Z AUTO 25006KT 9999 SCT037 03/02 Q1011 NOSIG
19:50
V
3 °C 10 km+ - 250° 250° 8 kt METAR EDDG 071850Z AUTO 25008KT 9999 FEW014 03/02 Q1011 NOSIG
19:20
M
3 °C 10 km+ 1.600 ft 260° 260° 5 kt METAR EDDG 071820Z AUTO 26005KT 220V280 9999 BKN016 BKN026 03/02 Q1011 NOSIG
18:50
V
3 °C 10 km+ - 240° 240° 6 kt METAR EDDG 071750Z AUTO 24006KT 9999 SCT020 03/02 Q1012 NOSIG
18:20
V
3 °C 10 km+ - 250° 250° 6 kt METAR EDDG 071720Z AUTO 25006KT 9999 SCT048 03/01 Q1012 NOSIG
17:50
V
4 °C 10 km+ - 240° 240° 6 kt METAR EDDG 071650Z AUTO 24006KT 9999 VCSH SCT049 FEW///CB 04/01 Q1012 NOSIG
17:20
V
3 °C 10 km+ - 240° 240° 5 kt METAR EDDG 071620Z AUTO 24005KT 9999 FEW023 03/01 Q1012 NOSIG
16:50
V
4 °C 10 km+ - 250° 250° 7 kt METAR EDDG 071550Z AUTO 25007KT CAVOK 04/02 Q1013 NOSIG
16:20
V
4 °C 10 km+ - 260° 260° 8 kt METAR EDDG 071520Z AUTO 26008KT CAVOK 04/02 Q1013 NOSIG
15:50
V
5 °C 10 km+ - 260° 260° 8 kt METAR EDDG 071450Z AUTO 26008KT 9999 SCT023 05/02 Q1013 NOSIG
15:20
V
5 °C 10 km+ - 260° 260° 12 kt METAR EDDG 071420Z AUTO 26012KT 9999 SCT025 05/02 Q1013 NOSIG
14:50
M
5 °C 10 km+ 2.400 ft 260° 260° 12 kt METAR EDDG 071350Z AUTO 26012KT 9999 BKN024 BKN037 05/02 Q1013 NOSIG
14:20
V
5 °C 10 km+ - 270° 270° 10 kt METAR EDDG 071320Z AUTO 27010KT 9999 SCT036 05/02 Q1013 NOSIG
13:50
V
5 °C 10 km+ 4.700 ft 270° 270° 10 kt METAR EDDG 071250Z AUTO 27010KT 9999 SCT017 BKN047 05/02 Q1014 NOSIG
13:20
V
5 °C 10 km+ - 270° 270° 8 kt METAR EDDG 071220Z AUTO 27008KT 9999 FEW013 05/02 Q1014 NOSIG
12:50
V
5 °C 10 km+ - 270° 270° 11 kt METAR EDDG 071150Z AUTO 27011KT 9999 FEW044 05/02 Q1014 NOSIG
12:20
V
5 °C 10 km+ - 270° 270° 7 kt METAR EDDG 071120Z AUTO 27007KT 240V310 CAVOK 05/02 Q1014 NOSIG
11:50
V
5 °C 10 km+ - 270° 270° 9 kt METAR EDDG 071050Z AUTO 27009KT CAVOK 05/02 Q1015 NOSIG
11:20
V
4 °C 10 km+ - 280° 280° 6 kt METAR EDDG 071020Z AUTO 28006KT 250V310 9999 FEW044 04/02 Q1015 NOSIG
10:50
V
4 °C 10 km+ - 270° 270° 9 kt METAR EDDG 070950Z AUTO 27009KT 9999 SCT040 04/02 Q1015 NOSIG
10:20
V
4 °C 10 km+ - 270° 270° 8 kt METAR EDDG 070920Z AUTO 27008KT CAVOK 04/02 Q1015 NOSIG
09:50
V
3 °C 10 km+ - 260° 260° 9 kt METAR EDDG 070850Z AUTO 26009KT CAVOK 03/02 Q1015 NOSIG
09:20
V
2 °C 10 km+ - 260° 260° 7 kt METAR EDDG 070820Z AUTO 26007KT 9999 FEW047 02/01 Q1015 NOSIG
08:50
V
2 °C 10 km+ 4.000 ft 260° 260° 8 kt METAR EDDG 070750Z AUTO 26008KT 9999 -DZ FEW029 BKN040 02/01 Q1015 NOSIG
08:20
V
2 °C 10 km+ - 260° 260° 8 kt METAR EDDG 070720Z AUTO 26008KT 9999 SCT034 02/01 Q1015 NOSIG
07:50
V
2 °C 10 km+ - 260° 260° 6 kt METAR EDDG 070650Z AUTO 26006KT 9999 FEW037 SCT048 02/01 Q1015 NOSIG
07:20
V
2 °C 10 km+ 3.800 ft 270° 270° 6 kt METAR EDDG 070620Z AUTO 27006KT 9999 SCT025 BKN038 02/01 Q1015 NOSIG
06:50
V
3 °C 10 km+ 3.600 ft 270° 270° 7 kt METAR EDDG 070550Z AUTO 27007KT 9999 BKN036 03/02 Q1015 NOSIG
06:20
V
3 °C 10 km+ 3.900 ft 260° 260° 7 kt METAR EDDG 070520Z AUTO 26007KT 9999 FEW032 BKN039 03/02 Q1015 NOSIG
05:50
V
2 °C 10 km+ 4.500 ft 270° 270° 6 kt METAR EDDG 070450Z AUTO 27006KT 9999 FEW037 BKN045 02/02 Q1015 NOSIG
05:20
V
2 °C 10 km+ - 270° 270° 6 kt METAR EDDG 070420Z AUTO 27006KT 9999 FEW032 02/01 Q1015 NOSIG
04:50
V
2 °C 10 km+ - 270° 270° 7 kt METAR EDDG 070350Z AUTO 27007KT 9999 SCT039 02/01 Q1015 NOSIG
04:20
V
2 °C 10 km+ - 260° 260° 7 kt METAR EDDG 070320Z AUTO 26007KT 9999 FEW044 02/01 Q1015 NOSIG
03:50
V
2 °C 10 km+ - 260° 260° 6 kt METAR EDDG 070250Z AUTO 26006KT 9999 FEW031 02/01 Q1015 NOSIG
03:20
V
3 °C 10 km+ - 260° 260° 6 kt METAR EDDG 070220Z AUTO 26006KT 9999 SCT038 03/02 Q1015 NOSIG
02:50
V
3 °C 10 km+ - 270° 270° 7 kt METAR EDDG 070150Z AUTO 27007KT 9999 FEW006 03/02 Q1015 NOSIG
02:20
I
4 °C 10 km+ 700 ft 270° 270° 8 kt METAR EDDG 070120Z AUTO 27008KT 9999 BKN007 BKN034 04/03 Q1015 TEMPO SCT007
01:50
I
5 °C 10 km+ 700 ft 260° 260° 6 kt METAR EDDG 070050Z AUTO 26006KT 9999 BKN007 05/04 Q1015 NOSIG
01:20
I
5 °C 10 km+ 800 ft 270° 270° 8 kt METAR EDDG 070020Z AUTO 27008KT 9999 BKN008 05/04 Q1015 NOSIG
00:50
V
5 °C 10 km+ 3.900 ft 270° 270° 6 kt METAR EDDG 062350Z AUTO 27006KT 9999 SCT008 OVC039 05/04 Q1015 TEMPO BKN008
00:20
I
5 °C 10 km+ 800 ft 280° 280° 7 kt METAR EDDG 062320Z AUTO 28007KT 260V320 9999 BKN008 OVC012 05/04 Q1015 TEMPO BKN010

6 décembre 2022

Temps Code Temps Temp. Vue Base cloud Vent METAR/SPECI
23:50
I
5 °C 7 km 600 ft 270° 270° 7 kt METAR EDDG 062250Z AUTO 27007KT 7000 BKN006 OVC017 05/04 Q1015 NOSIG
23:20
L
5 °C 5 km 400 ft 260° 260° 6 kt METAR EDDG 062220Z AUTO 26006KT 5000 BR OVC004 05/04 Q1015 REDZ TEMPO 6000 BKN005
22:50
I
5 °C 5 km 500 ft 250° 250° 7 kt METAR EDDG 062150Z AUTO 25007KT 5000 BR OVC005 05/04 Q1015 TEMPO 4000 -DZ BKN004
22:20
I
5 °C 4,6 km 700 ft 250° 250° 6 kt METAR EDDG 062120Z AUTO 25006KT 4600 -DZ BR OVC007 05/04 Q1016 REDZ TEMPO 6000
21:50
I
5 °C 5 km 900 ft 230° 230° 6 kt METAR EDDG 062050Z AUTO 23006KT 5000 -DZ BR BKN009 BKN022 05/04 Q1016 RERA TEMPO 4000 BKN010
21:20
I
5 °C 10 km+ 900 ft 240° 240° 6 kt METAR EDDG 062020Z AUTO 24006KT 9999 OVC009 OVC025 05/03 Q1016 TEMPO SCT009
20:50
M
4 °C 10 km+ 1.000 ft 240° 240° 3 kt METAR EDDG 061950Z AUTO 24003KT 220V280 9999 BKN010 OVC034 04/03 Q1016 TEMPO BKN009
20:20
M
4 °C 10 km+ 1.600 ft 240° 240° 4 kt METAR EDDG 061920Z AUTO 24004KT 9999 BKN016 04/03 Q1016 TEMPO BKN011
19:50
V
4 °C 10 km+ 4.100 ft 230° 230° 5 kt METAR EDDG 061850Z AUTO 23005KT 9999 FEW012 BKN041 04/02 Q1016 NOSIG
19:20
V
4 °C 10 km+ - 240° 240° 7 kt METAR EDDG 061820Z AUTO 24007KT 9999 FEW017 SCT029 04/02 Q1016 NOSIG
18:50
V
4 °C 10 km+ - 230° 230° 6 kt METAR EDDG 061750Z AUTO 23006KT 9999 FEW014 04/02 Q1016 NOSIG
18:20
V
4 °C 10 km+ - 240° 240° 5 kt METAR EDDG 061720Z AUTO 24005KT 9999 FEW016 04/02 Q1017 NOSIG
17:50
V
4 °C 10 km+ - 230° 230° 4 kt METAR EDDG 061650Z AUTO 23004KT CAVOK 04/02 Q1017 NOSIG
17:20
V
3 °C 10 km+ - Var Var 2 kt METAR EDDG 061620Z AUTO VRB02KT CAVOK 03/02 Q1017 NOSIG
16:50
V
3 °C 10 km+ - 220° 220° 2 kt METAR EDDG 061550Z AUTO 22002KT 9999 FEW036 03/02 Q1017 NOSIG
16:20
V
4 °C 10 km+ 3.700 ft 230° 230° 3 kt METAR EDDG 061520Z AUTO 23003KT 9999 BKN037 04/02 Q1017 NOSIG
15:50
V
5 °C 10 km+ 3.400 ft 240° 240° 3 kt METAR EDDG 061450Z AUTO 24003KT 210V280 9999 FEW019 OVC034 05/03 Q1017 NOSIG
15:20
V
5 °C 10 km+ 3.600 ft 250° 250° 5 kt METAR EDDG 061420Z AUTO 25005KT 240V300 9999 FEW027 OVC036 05/03 Q1017 NOSIG
14:50
M
5 °C 10 km+ 2.100 ft 270° 270° 7 kt METAR EDDG 061350Z AUTO 27007KT 9999 SCT016 BKN021 OVC035 05/02 Q1018 NOSIG
14:20
M
5 °C 10 km+ 1.400 ft 300° 300° 4 kt METAR EDDG 061320Z AUTO 30004KT 230V340 9999 BKN014 BKN035 05/03 Q1018 BECMG SCT014
13:50
V
5 °C 10 km+ - 280° 280° 4 kt METAR EDDG 061250Z AUTO 28004KT 9999 FEW012 05/03 Q1018 NOSIG
13:20
M
5 °C 10 km+ 2.700 ft 300° 300° 6 kt METAR EDDG 061220Z AUTO 30006KT 270V330 9999 FEW010 BKN027 BKN035 05/03 Q1018 NOSIG
12:50
M
5 °C 10 km+ 1.900 ft 300° 300° 5 kt METAR EDDG 061150Z AUTO 30005KT 250V330 9999 SCT010 BKN019 BKN025 05/03 Q1018 NOSIG
12:20
M
4 °C 10 km+ 1.300 ft 280° 280° 5 kt METAR EDDG 061120Z AUTO 28005KT 260V320 9999 SCT006 BKN013 04/03 Q1018 BECMG SCT010 BKN020
11:50
I
5 °C 10 km+ 500 ft 270° 270° 5 kt METAR EDDG 061050Z AUTO 27005KT 9999 BKN005 BKN031 05/04 Q1018 NOSIG
11:20
I
5 °C 10 km+ 600 ft 290° 290° 5 kt METAR EDDG 061020Z AUTO 29005KT 9999 BKN006 BKN012 OVC028 05/04 Q1018 BECMG SCT010 BKN020
10:50
I
4 °C 10 km+ 700 ft 290° 290° 4 kt METAR EDDG 060950Z AUTO 29004KT 9999 BKN007 BKN011 OVC025 04/03 Q1018 BECMG SCT010 BKN020

Nous et des tiers suivons ton comportement Internet sur notre site Web à l'aide de cookies. Si tu continues, nous supposons que tu es d'accord avec notre Politique en matière de cookies.